sensor_id;sensor_type;location;lat;lon;timestamp;temperature;humidity
25554;DHT22;13446;50.926;5.332;2022-08-01T00:00:24;23.40;99.90
25554;DHT22;13446;50.926;5.332;2022-08-01T00:02:49;23.40;99.90
25554;DHT22;13446;50.926;5.332;2022-08-01T00:05:15;23.40;99.90
25554;DHT22;13446;50.926;5.332;2022-08-01T00:07:41;23.40;99.90
25554;DHT22;13446;50.926;5.332;2022-08-01T00:10:12;23.40;99.90
25554;DHT22;13446;50.926;5.332;2022-08-01T00:12:39;23.40;99.90
25554;DHT22;13446;50.926;5.332;2022-08-01T00:15:07;23.30;99.90
25554;DHT22;13446;50.926;5.332;2022-08-01T00:17:33;23.30;99.90
25554;DHT22;13446;50.926;5.332;2022-08-01T00:20:00;23.30;99.90
25554;DHT22;13446;50.926;5.332;2022-08-01T00:22:25;23.20;99.90
25554;DHT22;13446;50.926;5.332;2022-08-01T00:24:51;23.10;99.90
25554;DHT22;13446;50.926;5.332;2022-08-01T00:27:17;23.10;99.90
25554;DHT22;13446;50.926;5.332;2022-08-01T00:29:44;23.00;99.90
25554;DHT22;13446;50.926;5.332;2022-08-01T00:32:10;22.80;99.90
25554;DHT22;13446;50.926;5.332;2022-08-01T00:34:35;22.90;99.90
25554;DHT22;13446;50.926;5.332;2022-08-01T00:37:01;22.90;99.90
25554;DHT22;13446;50.926;5.332;2022-08-01T00:39:27;23.00;99.90
25554;DHT22;13446;50.926;5.332;2022-08-01T00:41:52;22.90;99.90
25554;DHT22;13446;50.926;5.332;2022-08-01T00:44:18;22.90;99.90
25554;DHT22;13446;50.926;5.332;2022-08-01T00:46:45;23.00;99.90
25554;DHT22;13446;50.926;5.332;2022-08-01T00:49:11;22.90;99.90
25554;DHT22;13446;50.926;5.332;2022-08-01T00:51:38;23.00;99.90
25554;DHT22;13446;50.926;5.332;2022-08-01T00:54:04;22.90;99.90
25554;DHT22;13446;50.926;5.332;2022-08-01T00:56:30;22.90;99.90
25554;DHT22;13446;50.926;5.332;2022-08-01T00:58:57;22.90;99.90
25554;DHT22;13446;50.926;5.332;2022-08-01T01:01:23;22.90;99.90
25554;DHT22;13446;50.926;5.332;2022-08-01T01:03:50;23.00;99.90
25554;DHT22;13446;50.926;5.332;2022-08-01T01:06:21;23.00;99.90
25554;DHT22;13446;50.926;5.332;2022-08-01T01:11:39;23.00;99.90
25554;DHT22;13446;50.926;5.332;2022-08-01T01:14:16;23.10;99.90
25554;DHT22;13446;50.926;5.332;2022-08-01T01:16:45;23.10;99.90
25554;DHT22;13446;50.926;5.332;2022-08-01T01:19:18;23.10;99.90
25554;DHT22;13446;50.926;5.332;2022-08-01T01:27:21;23.00;99.90
25554;DHT22;13446;50.926;5.332;2022-08-01T01:29:52;23.00;99.90
25554;DHT22;13446;50.926;5.332;2022-08-01T01:32:32;22.90;99.90
25554;DHT22;13446;50.926;5.332;2022-08-01T01:35:03;22.80;99.90
25554;DHT22;13446;50.926;5.332;2022-08-01T01:37:32;22.70;99.90
25554;DHT22;13446;50.926;5.332;2022-08-01T01:40:00;22.90;99.90
25554;DHT22;13446;50.926;5.332;2022-08-01T01:42:28;22.70;99.90
25554;DHT22;13446;50.926;5.332;2022-08-01T01:44:55;22.60;99.90
25554;DHT22;13446;50.926;5.332;2022-08-01T01:47:23;22.80;99.90
25554;DHT22;13446;50.926;5.332;2022-08-01T01:49:50;22.70;99.90
25554;DHT22;13446;50.926;5.332;2022-08-01T01:52:19;22.80;99.90
25554;DHT22;13446;50.926;5.332;2022-08-01T01:54:50;22.80;99.90
25554;DHT22;13446;50.926;5.332;2022-08-01T01:57:18;22.90;99.90
25554;DHT22;13446;50.926;5.332;2022-08-01T01:59:44;22.90;99.90
25554;DHT22;13446;50.926;5.332;2022-08-01T02:02:11;22.90;99.90
25554;DHT22;13446;50.926;5.332;2022-08-01T02:04:41;22.80;99.90
25554;DHT22;13446;50.926;5.332;2022-08-01T02:07:13;22.90;99.90
25554;DHT22;13446;50.926;5.332;2022-08-01T02:09:41;22.70;99.90
25554;DHT22;13446;50.926;5.332;2022-08-01T02:12:10;22.70;99.90
25554;DHT22;13446;50.926;5.332;2022-08-01T02:14:37;22.80;99.90
25554;DHT22;13446;50.926;5.332;2022-08-01T02:17:05;22.60;99.90
25554;DHT22;13446;50.926;5.332;2022-08-01T02:19:33;22.50;99.90
25554;DHT22;13446;50.926;5.332;2022-08-01T02:22:08;22.70;99.90
25554;DHT22;13446;50.926;5.332;2022-08-01T02:24:39;22.70;99.90
25554;DHT22;13446;50.926;5.332;2022-08-01T02:27:09;22.70;99.90
25554;DHT22;13446;50.926;5.332;2022-08-01T02:29:45;22.70;99.90
25554;DHT22;13446;50.926;5.332;2022-08-01T02:32:23;22.70;99.90
25554;DHT22;13446;50.926;5.332;2022-08-01T02:34:51;22.70;99.90
25554;DHT22;13446;50.926;5.332;2022-08-01T02:37:19;22.60;99.90
25554;DHT22;13446;50.926;5.332;2022-08-01T02:39:48;22.60;99.90
25554;DHT22;13446;50.926;5.332;2022-08-01T02:42:18;22.50;99.90
25554;DHT22;13446;50.926;5.332;2022-08-01T02:44:45;22.40;99.90
25554;DHT22;13446;50.926;5.332;2022-08-01T02:47:13;22.20;99.90
25554;DHT22;13446;50.926;5.332;2022-08-01T02:49:44;22.30;99.90
25554;DHT22;13446;50.926;5.332;2022-08-01T02:52:13;22.40;99.90
25554;DHT22;13446;50.926;5.332;2022-08-01T02:54:41;22.60;99.90
25554;DHT22;13446;50.926;5.332;2022-08-01T02:57:08;22.60;99.90
25554;DHT22;13446;50.926;5.332;2022-08-01T02:59:37;22.60;99.90
25554;DHT22;13446;50.926;5.332;2022-08-01T03:02:04;22.40;99.90
25554;DHT22;13446;50.926;5.332;2022-08-01T03:04:33;22.50;99.90
25554;DHT22;13446;50.926;5.332;2022-08-01T03:07:02;22.50;99.90
25554;DHT22;13446;50.926;5.332;2022-08-01T03:09:29;22.40;99.90
25554;DHT22;13446;50.926;5.332;2022-08-01T03:11:59;22.50;99.90
25554;DHT22;13446;50.926;5.332;2022-08-01T03:14:26;22.60;99.90
25554;DHT22;13446;50.926;5.332;2022-08-01T03:16:54;22.60;99.90
25554;DHT22;13446;50.926;5.332;2022-08-01T03:19:23;22.60;99.90
25554;DHT22;13446;50.926;5.332;2022-08-01T03:21:50;22.70;99.90
25554;DHT22;13446;50.926;5.332;2022-08-01T03:24:16;22.70;99.90
25554;DHT22;13446;50.926;5.332;2022-08-01T03:26:44;22.70;99.90
25554;DHT22;13446;50.926;5.332;2022-08-01T03:29:14;22.50;99.90
25554;DHT22;13446;50.926;5.332;2022-08-01T03:31:43;22.40;99.90
25554;DHT22;13446;50.926;5.332;2022-08-01T03:34:10;22.30;99.90
25554;DHT22;13446;50.926;5.332;2022-08-01T03:36:52;22.50;99.90
25554;DHT22;13446;50.926;5.332;2022-08-01T03:39:19;22.60;99.90
25554;DHT22;13446;50.926;5.332;2022-08-01T03:42:01;22.50;99.90
25554;DHT22;13446;50.926;5.332;2022-08-01T03:44:31;22.50;99.90
25554;DHT22;13446;50.926;5.332;2022-08-01T03:47:00;22.50;99.90
25554;DHT22;13446;50.926;5.332;2022-08-01T03:49:30;22.50;99.90
25554;DHT22;13446;50.926;5.332;2022-08-01T03:51:58;22.50;99.90
25554;DHT22;13446;50.926;5.332;2022-08-01T03:54:27;22.50;99.90
25554;DHT22;13446;50.926;5.332;2022-08-01T03:56:53;22.40;99.90
25554;DHT22;13446;50.926;5.332;2022-08-01T03:59:20;22.40;99.90
25554;DHT22;13446;50.926;5.332;2022-08-01T04:01:47;22.40;99.90
25554;DHT22;13446;50.926;5.332;2022-08-01T04:04:14;22.30;99.90
25554;DHT22;13446;50.926;5.332;2022-08-01T04:06:41;22.20;99.90
25554;DHT22;13446;50.926;5.332;2022-08-01T04:09:07;22.10;99.90
25554;DHT22;13446;50.926;5.332;2022-08-01T04:11:33;22.20;99.90
25554;DHT22;13446;50.926;5.332;2022-08-01T04:13:59;22.30;99.90
25554;DHT22;13446;50.926;5.332;2022-08-01T04:16:24;22.20;99.90
25554;DHT22;13446;50.926;5.332;2022-08-01T04:18:51;22.20;99.90
25554;DHT22;13446;50.926;5.332;2022-08-01T04:21:20;22.30;99.90
25554;DHT22;13446;50.926;5.332;2022-08-01T04:23:48;22.20;99.90
25554;DHT22;13446;50.926;5.332;2022-08-01T04:26:15;22.30;99.90
25554;DHT22;13446;50.926;5.332;2022-08-01T04:28:44;22.40;99.90
25554;DHT22;13446;50.926;5.332;2022-08-01T04:31:12;22.30;99.90
25554;DHT22;13446;50.926;5.332;2022-08-01T04:33:46;22.30;99.90
25554;DHT22;13446;50.926;5.332;2022-08-01T04:36:14;22.50;99.90
25554;DHT22;13446;50.926;5.332;2022-08-01T04:38:41;22.50;99.90
25554;DHT22;13446;50.926;5.332;2022-08-01T04:41:13;22.50;99.90
25554;DHT22;13446;50.926;5.332;2022-08-01T04:43:40;22.60;99.90
25554;DHT22;13446;50.926;5.332;2022-08-01T04:46:07;22.50;99.90
25554;DHT22;13446;50.926;5.332;2022-08-01T04:48:36;22.60;99.90
25554;DHT22;13446;50.926;5.332;2022-08-01T04:51:03;22.30;99.90
25554;DHT22;13446;50.926;5.332;2022-08-01T04:53:29;22.50;99.90
25554;DHT22;13446;50.926;5.332;2022-08-01T04:55:58;22.50;99.90
25554;DHT22;13446;50.926;5.332;2022-08-01T04:58:23;22.60;99.90
25554;DHT22;13446;50.926;5.332;2022-08-01T05:00:49;22.30;99.90
25554;DHT22;13446;50.926;5.332;2022-08-01T05:03:15;22.10;99.90
25554;DHT22;13446;50.926;5.332;2022-08-01T05:05:41;22.30;99.90
25554;DHT22;13446;50.926;5.332;2022-08-01T05:08:06;22.40;99.90
25554;DHT22;13446;50.926;5.332;2022-08-01T05:10:32;22.20;99.90
25554;DHT22;13446;50.926;5.332;2022-08-01T05:12:58;22.20;99.90
25554;DHT22;13446;50.926;5.332;2022-08-01T05:15:24;22.10;99.90
25554;DHT22;13446;50.926;5.332;2022-08-01T05:17:49;22.20;99.90
25554;DHT22;13446;50.926;5.332;2022-08-01T05:20:15;22.20;99.90
25554;DHT22;13446;50.926;5.332;2022-08-01T05:22:41;22.40;99.90
25554;DHT22;13446;50.926;5.332;2022-08-01T05:25:08;22.10;99.90
25554;DHT22;13446;50.926;5.332;2022-08-01T05:27:35;22.10;99.90
25554;DHT22;13446;50.926;5.332;2022-08-01T05:30:08;22.00;99.90
25554;DHT22;13446;50.926;5.332;2022-08-01T05:32:34;22.00;99.90
25554;DHT22;13446;50.926;5.332;2022-08-01T05:35:00;22.00;99.90
25554;DHT22;13446;50.926;5.332;2022-08-01T05:37:25;21.70;99.90
25554;DHT22;13446;50.926;5.332;2022-08-01T05:39:51;21.50;99.90
25554;DHT22;13446;50.926;5.332;2022-08-01T05:42:16;21.60;99.90
25554;DHT22;13446;50.926;5.332;2022-08-01T05:44:42;21.80;99.90
25554;DHT22;13446;50.926;5.332;2022-08-01T05:47:08;21.90;99.90
25554;DHT22;13446;50.926;5.332;2022-08-01T05:49:34;21.90;99.90
25554;DHT22;13446;50.926;5.332;2022-08-01T05:51:59;21.90;99.90
25554;DHT22;13446;50.926;5.332;2022-08-01T05:54:27;21.80;99.90
25554;DHT22;13446;50.926;5.332;2022-08-01T05:56:54;21.80;99.90
25554;DHT22;13446;50.926;5.332;2022-08-01T05:59:25;21.70;99.90
25554;DHT22;13446;50.926;5.332;2022-08-01T06:01:50;21.70;99.90
25554;DHT22;13446;50.926;5.332;2022-08-01T06:04:16;21.60;99.90
25554;DHT22;13446;50.926;5.332;2022-08-01T06:06:43;21.50;99.90
25554;DHT22;13446;50.926;5.332;2022-08-01T06:09:09;21.50;99.90
25554;DHT22;13446;50.926;5.332;2022-08-01T06:11:35;21.30;99.90
25554;DHT22;13446;50.926;5.332;2022-08-01T06:14:00;21.20;99.90
25554;DHT22;13446;50.926;5.332;2022-08-01T06:16:27;21.10;99.90
25554;DHT22;13446;50.926;5.332;2022-08-01T06:18:53;21.20;99.90
25554;DHT22;13446;50.926;5.332;2022-08-01T06:21:20;21.40;99.90
25554;DHT22;13446;50.926;5.332;2022-08-01T06:23:46;21.60;99.90
25554;DHT22;13446;50.926;5.332;2022-08-01T06:26:12;21.70;99.90
25554;DHT22;13446;50.926;5.332;2022-08-01T06:28:38;21.60;99.90
25554;DHT22;13446;50.926;5.332;2022-08-01T06:31:04;21.60;99.90
25554;DHT22;13446;50.926;5.332;2022-08-01T06:33:30;21.60;99.90
25554;DHT22;13446;50.926;5.332;2022-08-01T06:35:55;21.60;99.90
25554;DHT22;13446;50.926;5.332;2022-08-01T06:38:21;22.10;99.90
25554;DHT22;13446;50.926;5.332;2022-08-01T06:40:47;22.20;99.90
25554;DHT22;13446;50.926;5.332;2022-08-01T06:43:12;22.60;99.90
25554;DHT22;13446;50.926;5.332;2022-08-01T06:45:41;22.70;99.90
25554;DHT22;13446;50.926;5.332;2022-08-01T06:48:07;22.40;99.90
25554;DHT22;13446;50.926;5.332;2022-08-01T06:50:33;22.50;99.90
25554;DHT22;13446;50.926;5.332;2022-08-01T06:53:01;22.60;99.90
25554;DHT22;13446;50.926;5.332;2022-08-01T06:55:27;22.70;99.90
25554;DHT22;13446;50.926;5.332;2022-08-01T06:57:53;22.90;99.90
25554;DHT22;13446;50.926;5.332;2022-08-01T07:00:20;23.10;99.90
25554;DHT22;13446;50.926;5.332;2022-08-01T07:02:49;23.30;99.90
25554;DHT22;13446;50.926;5.332;2022-08-01T07:05:15;23.40;99.90
25554;DHT22;13446;50.926;5.332;2022-08-01T07:07:41;23.50;99.90
25554;DHT22;13446;50.926;5.332;2022-08-01T07:10:07;23.60;99.90
25554;DHT22;13446;50.926;5.332;2022-08-01T07:12:34;23.80;99.90
25554;DHT22;13446;50.926;5.332;2022-08-01T07:15:03;23.90;99.90
25554;DHT22;13446;50.926;5.332;2022-08-01T07:17:29;24.50;99.90
25554;DHT22;13446;50.926;5.332;2022-08-01T07:19:55;24.50;99.90
25554;DHT22;13446;50.926;5.332;2022-08-01T07:22:21;25.10;99.90
25554;DHT22;13446;50.926;5.332;2022-08-01T07:24:48;25.40;99.90
25554;DHT22;13446;50.926;5.332;2022-08-01T07:27:15;25.20;99.90
25554;DHT22;13446;50.926;5.332;2022-08-01T07:29:42;25.40;99.90
25554;DHT22;13446;50.926;5.332;2022-08-01T07:32:09;25.60;99.90
25554;DHT22;13446;50.926;5.332;2022-08-01T07:34:35;25.60;99.90
25554;DHT22;13446;50.926;5.332;2022-08-01T07:37:00;25.40;99.90
25554;DHT22;13446;50.926;5.332;2022-08-01T07:39:26;25.50;99.90
25554;DHT22;13446;50.926;5.332;2022-08-01T07:41:52;25.50;99.90
25554;DHT22;13446;50.926;5.332;2022-08-01T07:44:18;25.80;99.90
25554;DHT22;13446;50.926;5.332;2022-08-01T07:46:43;26.40;99.90
25554;DHT22;13446;50.926;5.332;2022-08-01T07:49:09;26.20;99.90
25554;DHT22;13446;50.926;5.332;2022-08-01T07:51:34;26.00;99.90
25554;DHT22;13446;50.926;5.332;2022-08-01T07:54:00;25.90;99.90
25554;DHT22;13446;50.926;5.332;2022-08-01T07:56:25;26.40;99.90
25554;DHT22;13446;50.926;5.332;2022-08-01T07:58:51;27.20;99.90
25554;DHT22;13446;50.926;5.332;2022-08-01T08:01:17;27.80;99.90
25554;DHT22;13446;50.926;5.332;2022-08-01T08:03:43;27.50;99.90
25554;DHT22;13446;50.926;5.332;2022-08-01T08:06:09;27.50;99.90
25554;DHT22;13446;50.926;5.332;2022-08-01T08:08:34;27.40;99.90
25554;DHT22;13446;50.926;5.332;2022-08-01T08:11:01;27.00;99.90
25554;DHT22;13446;50.926;5.332;2022-08-01T08:13:26;26.60;99.90
25554;DHT22;13446;50.926;5.332;2022-08-01T08:15:52;27.00;99.90
25554;DHT22;13446;50.926;5.332;2022-08-01T08:18:18;27.10;99.90
25554;DHT22;13446;50.926;5.332;2022-08-01T08:20:44;26.90;99.90
25554;DHT22;13446;50.926;5.332;2022-08-01T08:23:10;27.00;99.90
25554;DHT22;13446;50.926;5.332;2022-08-01T08:25:55;27.00;99.90
25554;DHT22;13446;50.926;5.332;2022-08-01T08:28:20;27.20;99.90
25554;DHT22;13446;50.926;5.332;2022-08-01T08:30:46;26.80;99.90
25554;DHT22;13446;50.926;5.332;2022-08-01T08:33:12;26.70;99.90
25554;DHT22;13446;50.926;5.332;2022-08-01T08:35:39;26.90;99.90
25554;DHT22;13446;50.926;5.332;2022-08-01T08:38:08;26.70;99.90
25554;DHT22;13446;50.926;5.332;2022-08-01T08:40:35;27.10;99.90
25554;DHT22;13446;50.926;5.332;2022-08-01T08:43:04;27.50;99.90
25554;DHT22;13446;50.926;5.332;2022-08-01T08:45:31;28.70;99.90
25554;DHT22;13446;50.926;5.332;2022-08-01T08:47:57;29.10;99.90
25554;DHT22;13446;50.926;5.332;2022-08-01T08:50:24;30.30;98.70
25554;DHT22;13446;50.926;5.332;2022-08-01T08:52:53;31.20;95.20
25554;DHT22;13446;50.926;5.332;2022-08-01T08:55:20;32.40;92.90
25554;DHT22;13446;50.926;5.332;2022-08-01T08:57:46;34.10;85.00
25554;DHT22;13446;50.926;5.332;2022-08-01T09:00:13;34.70;73.20
25554;DHT22;13446;50.926;5.332;2022-08-01T09:02:47;34.60;73.90
25554;DHT22;13446;50.926;5.332;2022-08-01T09:05:22;36.70;67.20
25554;DHT22;13446;50.926;5.332;2022-08-01T09:07:52;36.80;61.50
25554;DHT22;13446;50.926;5.332;2022-08-01T09:10:18;35.80;58.60
25554;DHT22;13446;50.926;5.332;2022-08-01T09:13:03;36.00;58.20
25554;DHT22;13446;50.926;5.332;2022-08-01T09:18:05;34.90;59.10
25554;DHT22;13446;50.926;5.332;2022-08-01T09:20:31;33.70;61.40
25554;DHT22;13446;50.926;5.332;2022-08-01T09:23:00;33.40;63.80
25554;DHT22;13446;50.926;5.332;2022-08-01T09:25:26;32.50;66.40
25554;DHT22;13446;50.926;5.332;2022-08-01T09:28:05;31.70;67.00
25554;DHT22;13446;50.926;5.332;2022-08-01T09:30:37;31.90;70.00
25554;DHT22;13446;50.926;5.332;2022-08-01T09:33:04;32.30;69.80
25554;DHT22;13446;50.926;5.332;2022-08-01T09:35:34;31.90;69.40
25554;DHT22;13446;50.926;5.332;2022-08-01T09:38:16;32.40;68.80
25554;DHT22;13446;50.926;5.332;2022-08-01T09:43:17;32.30;68.80
25554;DHT22;13446;50.926;5.332;2022-08-01T09:45:44;32.50;69.20
25554;DHT22;13446;50.926;5.332;2022-08-01T09:48:10;32.70;67.10
25554;DHT22;13446;50.926;5.332;2022-08-01T09:50:48;31.60;70.30
25554;DHT22;13446;50.926;5.332;2022-08-01T09:53:14;32.10;70.10
25554;DHT22;13446;50.926;5.332;2022-08-01T09:55:40;32.20;68.80
25554;DHT22;13446;50.926;5.332;2022-08-01T09:58:06;32.30;68.00
25554;DHT22;13446;50.926;5.332;2022-08-01T10:00:33;32.60;68.50
25554;DHT22;13446;50.926;5.332;2022-08-01T10:03:18;33.30;67.10
25554;DHT22;13446;50.926;5.332;2022-08-01T10:05:43;33.00;65.60
25554;DHT22;13446;50.926;5.332;2022-08-01T10:08:10;32.30;68.80
25554;DHT22;13446;50.926;5.332;2022-08-01T10:10:38;32.00;70.00
25554;DHT22;13446;50.926;5.332;2022-08-01T10:13:04;31.80;71.20
25554;DHT22;13446;50.926;5.332;2022-08-01T10:15:31;32.40;70.60
25554;DHT22;13446;50.926;5.332;2022-08-01T10:17:58;33.80;65.80
25554;DHT22;13446;50.926;5.332;2022-08-01T10:20:28;34.60;65.10
25554;DHT22;13446;50.926;5.332;2022-08-01T10:22:55;33.50;65.40
25554;DHT22;13446;50.926;5.332;2022-08-01T10:25:23;34.00;63.30
25554;DHT22;13446;50.926;5.332;2022-08-01T10:27:53;34.20;61.70
25554;DHT22;13446;50.926;5.332;2022-08-01T10:30:22;34.20;62.00
25554;DHT22;13446;50.926;5.332;2022-08-01T10:32:49;33.80;60.90
25554;DHT22;13446;50.926;5.332;2022-08-01T10:35:18;33.40;64.10
25554;DHT22;13446;50.926;5.332;2022-08-01T10:37:45;33.20;64.40
25554;DHT22;13446;50.926;5.332;2022-08-01T10:40:14;33.50;64.50
25554;DHT22;13446;50.926;5.332;2022-08-01T10:42:44;34.10;63.10
25554;DHT22;13446;50.926;5.332;2022-08-01T10:45:13;33.80;63.70
25554;DHT22;13446;50.926;5.332;2022-08-01T10:48:02;32.20;67.90
25554;DHT22;13446;50.926;5.332;2022-08-01T10:50:37;33.80;65.20
25554;DHT22;13446;50.926;5.332;2022-08-01T10:53:13;34.90;61.40
25554;DHT22;13446;50.926;5.332;2022-08-01T10:55:50;36.60;57.70
25554;DHT22;13446;50.926;5.332;2022-08-01T10:58:29;36.90;56.20
25554;DHT22;13446;50.926;5.332;2022-08-01T11:09:15;34.50;54.80
25554;DHT22;13446;50.926;5.332;2022-08-01T11:14:23;33.50;57.90
25554;DHT22;13446;50.926;5.332;2022-08-01T11:16:49;35.00;56.90
25554;DHT22;13446;50.926;5.332;2022-08-01T11:19:14;36.50;53.70
25554;DHT22;13446;50.926;5.332;2022-08-01T11:32:53;38.10;49.00
25554;DHT22;13446;50.926;5.332;2022-08-01T11:35:20;35.70;48.70
25554;DHT22;13446;50.926;5.332;2022-08-01T11:37:47;36.20;50.00
25554;DHT22;13446;50.926;5.332;2022-08-01T11:40:24;36.70;50.10
25554;DHT22;13446;50.926;5.332;2022-08-01T11:45:53;37.40;48.70
25554;DHT22;13446;50.926;5.332;2022-08-01T11:48:27;37.30;48.10
25554;DHT22;13446;50.926;5.332;2022-08-01T11:50:57;37.60;46.60
25554;DHT22;13446;50.926;5.332;2022-08-01T11:53:23;36.10;47.30
25554;DHT22;13446;50.926;5.332;2022-08-01T11:55:50;35.90;47.50
25554;DHT22;13446;50.926;5.332;2022-08-01T11:58:22;36.30;47.90
25554;DHT22;13446;50.926;5.332;2022-08-01T12:00:57;36.50;47.30
25554;DHT22;13446;50.926;5.332;2022-08-01T12:03:30;36.60;47.40
25554;DHT22;13446;50.926;5.332;2022-08-01T12:05:58;36.50;47.50
25554;DHT22;13446;50.926;5.332;2022-08-01T12:08:31;35.20;47.70
25554;DHT22;13446;50.926;5.332;2022-08-01T12:11:03;34.60;49.40
25554;DHT22;13446;50.926;5.332;2022-08-01T12:13:40;34.50;49.40
25554;DHT22;13446;50.926;5.332;2022-08-01T12:16:09;35.00;50.00
25554;DHT22;13446;50.926;5.332;2022-08-01T12:18:39;35.00;49.80
25554;DHT22;13446;50.926;5.332;2022-08-01T12:21:05;33.90;50.90
25554;DHT22;13446;50.926;5.332;2022-08-01T12:23:31;34.00;52.50
25554;DHT22;13446;50.926;5.332;2022-08-01T12:25:56;34.30;51.10
25554;DHT22;13446;50.926;5.332;2022-08-01T12:28:22;34.70;51.20
25554;DHT22;13446;50.926;5.332;2022-08-01T12:30:49;34.50;50.10
25554;DHT22;13446;50.926;5.332;2022-08-01T12:33:17;34.10;50.30
25554;DHT22;13446;50.926;5.332;2022-08-01T12:35:43;33.30;52.40
25554;DHT22;13446;50.926;5.332;2022-08-01T12:40:43;33.10;51.80
25554;DHT22;13446;50.926;5.332;2022-08-01T12:43:09;33.40;53.40
25554;DHT22;13446;50.926;5.332;2022-08-01T12:45:38;33.80;52.20
25554;DHT22;13446;50.926;5.332;2022-08-01T12:48:11;34.50;51.80
25554;DHT22;13446;50.926;5.332;2022-08-01T12:50:38;34.40;50.90
25554;DHT22;13446;50.926;5.332;2022-08-01T12:53:05;34.70;49.90
25554;DHT22;13446;50.926;5.332;2022-08-01T12:55:31;35.30;50.30
25554;DHT22;13446;50.926;5.332;2022-08-01T12:58:08;35.10;49.20
25554;DHT22;13446;50.926;5.332;2022-08-01T13:00:36;35.40;46.70
25554;DHT22;13446;50.926;5.332;2022-08-01T13:03:06;35.60;46.50
25554;DHT22;13446;50.926;5.332;2022-08-01T13:05:51;34.60;47.60
25554;DHT22;13446;50.926;5.332;2022-08-01T13:08:19;34.30;48.20
25554;DHT22;13446;50.926;5.332;2022-08-01T13:10:46;34.90;48.50
25554;DHT22;13446;50.926;5.332;2022-08-01T13:13:13;35.30;47.00
25554;DHT22;13446;50.926;5.332;2022-08-01T13:15:40;34.90;47.50
25554;DHT22;13446;50.926;5.332;2022-08-01T13:18:27;35.30;47.60
25554;DHT22;13446;50.926;5.332;2022-08-01T13:21:14;36.20;47.20
25554;DHT22;13446;50.926;5.332;2022-08-01T13:26:48;34.40;48.30
25554;DHT22;13446;50.926;5.332;2022-08-01T13:29:38;34.30;49.50
25554;DHT22;13446;50.926;5.332;2022-08-01T13:32:17;33.60;49.50
25554;DHT22;13446;50.926;5.332;2022-08-01T13:34:43;33.60;50.10
25554;DHT22;13446;50.926;5.332;2022-08-01T13:37:08;33.30;50.10
25554;DHT22;13446;50.926;5.332;2022-08-01T13:39:34;33.30;50.90
25554;DHT22;13446;50.926;5.332;2022-08-01T13:42:13;32.90;50.60
25554;DHT22;13446;50.926;5.332;2022-08-01T13:44:40;32.90;51.00
25554;DHT22;13446;50.926;5.332;2022-08-01T13:47:06;32.00;52.40
25554;DHT22;13446;50.926;5.332;2022-08-01T13:49:34;32.10;52.20
25554;DHT22;13446;50.926;5.332;2022-08-01T13:52:00;31.80;52.50
25554;DHT22;13446;50.926;5.332;2022-08-01T13:54:26;31.90;52.90
25554;DHT22;13446;50.926;5.332;2022-08-01T13:56:52;31.90;52.50
25554;DHT22;13446;50.926;5.332;2022-08-01T13:59:18;31.90;53.10
25554;DHT22;13446;50.926;5.332;2022-08-01T14:01:44;31.90;52.20
25554;DHT22;13446;50.926;5.332;2022-08-01T14:04:10;31.70;53.40
25554;DHT22;13446;50.926;5.332;2022-08-01T14:06:35;31.80;54.80
25554;DHT22;13446;50.926;5.332;2022-08-01T14:09:03;31.70;54.50
25554;DHT22;13446;50.926;5.332;2022-08-01T14:11:28;31.70;54.30
25554;DHT22;13446;50.926;5.332;2022-08-01T14:13:54;31.50;54.90
25554;DHT22;13446;50.926;5.332;2022-08-01T14:16:20;31.50;55.20
25554;DHT22;13446;50.926;5.332;2022-08-01T14:18:45;30.90;55.90
25554;DHT22;13446;50.926;5.332;2022-08-01T14:21:11;31.20;56.00
25554;DHT22;13446;50.926;5.332;2022-08-01T14:23:37;31.00;56.30
25554;DHT22;13446;50.926;5.332;2022-08-01T14:26:04;31.20;56.50
25554;DHT22;13446;50.926;5.332;2022-08-01T14:28:30;31.10;56.50
25554;DHT22;13446;50.926;5.332;2022-08-01T14:30:59;31.10;56.80
25554;DHT22;13446;50.926;5.332;2022-08-01T14:33:25;31.20;57.60
25554;DHT22;13446;50.926;5.332;2022-08-01T14:35:51;31.60;56.90
25554;DHT22;13446;50.926;5.332;2022-08-01T14:38:17;31.20;56.80
25554;DHT22;13446;50.926;5.332;2022-08-01T14:40:43;31.30;56.40
25554;DHT22;13446;50.926;5.332;2022-08-01T14:43:10;31.30;56.50
25554;DHT22;13446;50.926;5.332;2022-08-01T14:45:35;31.10;57.10
25554;DHT22;13446;50.926;5.332;2022-08-01T14:48:01;30.30;58.00
25554;DHT22;13446;50.926;5.332;2022-08-01T14:50:27;30.20;58.60
25554;DHT22;13446;50.926;5.332;2022-08-01T14:52:53;30.10;60.00
25554;DHT22;13446;50.926;5.332;2022-08-01T14:55:19;30.40;58.30
25554;DHT22;13446;50.926;5.332;2022-08-01T14:57:49;30.70;57.30
25554;DHT22;13446;50.926;5.332;2022-08-01T15:00:15;30.60;57.80
25554;DHT22;13446;50.926;5.332;2022-08-01T15:02:41;30.50;57.90
25554;DHT22;13446;50.926;5.332;2022-08-01T15:05:08;30.60;58.20
25554;DHT22;13446;50.926;5.332;2022-08-01T15:07:35;30.10;58.40
25554;DHT22;13446;50.926;5.332;2022-08-01T15:10:01;30.00;59.50
25554;DHT22;13446;50.926;5.332;2022-08-01T15:12:27;30.20;59.60
25554;DHT22;13446;50.926;5.332;2022-08-01T15:14:53;30.10;58.50
25554;DHT22;13446;50.926;5.332;2022-08-01T15:17:19;30.10;59.20
25554;DHT22;13446;50.926;5.332;2022-08-01T15:19:50;30.00;59.90
25554;DHT22;13446;50.926;5.332;2022-08-01T15:22:18;30.10;60.20
25554;DHT22;13446;50.926;5.332;2022-08-01T15:24:44;30.20;60.60
25554;DHT22;13446;50.926;5.332;2022-08-01T15:27:11;30.00;60.90
25554;DHT22;13446;50.926;5.332;2022-08-01T15:29:37;30.20;60.10
25554;DHT22;13446;50.926;5.332;2022-08-01T15:32:05;30.20;59.70
25554;DHT22;13446;50.926;5.332;2022-08-01T15:34:32;30.00;60.10
25554;DHT22;13446;50.926;5.332;2022-08-01T15:36:57;29.90;60.40
25554;DHT22;13446;50.926;5.332;2022-08-01T15:39:23;30.10;59.80
25554;DHT22;13446;50.926;5.332;2022-08-01T15:41:49;30.10;58.60
25554;DHT22;13446;50.926;5.332;2022-08-01T15:44:15;29.80;59.60
25554;DHT22;13446;50.926;5.332;2022-08-01T15:46:46;30.00;59.30
25554;DHT22;13446;50.926;5.332;2022-08-01T15:49:11;30.10;57.70
25554;DHT22;13446;50.926;5.332;2022-08-01T15:51:37;30.20;56.90
25554;DHT22;13446;50.926;5.332;2022-08-01T15:54:03;30.00;57.70
25554;DHT22;13446;50.926;5.332;2022-08-01T15:56:34;29.90;58.20
25554;DHT22;13446;50.926;5.332;2022-08-01T15:59:00;29.70;58.30
25554;DHT22;13446;50.926;5.332;2022-08-01T16:01:27;29.90;58.00
25554;DHT22;13446;50.926;5.332;2022-08-01T16:03:53;29.70;57.40
25554;DHT22;13446;50.926;5.332;2022-08-01T16:06:19;29.20;58.90
25554;DHT22;13446;50.926;5.332;2022-08-01T16:08:45;29.30;59.20
25554;DHT22;13446;50.926;5.332;2022-08-01T16:11:11;29.40;59.70
25554;DHT22;13446;50.926;5.332;2022-08-01T16:13:37;29.40;59.80
25554;DHT22;13446;50.926;5.332;2022-08-01T16:16:03;29.40;60.40
25554;DHT22;13446;50.926;5.332;2022-08-01T16:18:29;29.20;60.20